Dallas, Texas
Traffic Map
Current Weather Conditions
Dallas, Texas
Clear
Clear
80°
Feels Like: 81°
Wind Chill: 80° Ceiling: Unl
Heat Index: 81° Visibility: 10mi
Dew Point: 60° Wind: 6mph
Humidity: 50% Direction: 170° (S)
Pressure: 30.04in Gusts: 0mph
Raw Report DataKDAL 260053Z 17005KT 10SM CLR 27/16 A3004 RMK AO2 SLP168 T02670156
Traffic Incident Summary
Active as of:
Severity:
Category:
InformationThere was an issue retrieving the traffic information for this location. Please try a different location or try again shortly.
Advertisements
Track Severe Weather on mobile